Home   Weather   Tunisia   Hammamet   Past weeks
Flag for Tunisia

Past Weather in Hammamet, Tunisia — Yesterday and Last 2 Weeks

Currently: 82 °F. Passing clouds. (Weather station: Enfidha Hammamet Intl Airport, Tunisia). See more current weather

Past Weather in Hammamet — Graph

°F

Hammamet Temperature Yesterday

Maximum temperature yesterday: 81 °F (at 10:00 am)
Minimum temperature yesterday: 73 °F (at 11:30 pm)
Average temperature yesterday: 78 °F

High & Low Weather Summary for the Past Weeks

 TemperatureHumidityPressure
High91 °F (Jun 15, 1:30 pm)94% (Jun 16, 2:30 am)30.21 "Hg (Jun 16, 2:30 am)
Low61 °F (Jun 13, 3:30 am)25% (Jun 7, 4:30 pm)29.92 "Hg (Jun 16, 3:30 pm)
Average75 °F62%30.04 "Hg
* Reported Jun 4 10:00 am — Jun 19 10:00 am, Hammamet. Weather by CustomWeather, © 2021

Note: Actual official high and low records may vary slightly from our data, if they occured in-between our weather recording intervals... More about our weather records

Hammamet Weather History for the Previous 24 Hours

Scroll right to see more
 ConditionsComfort  
Time TempWeatherWind HumidityBarometerVisibility
10:00 am
Sat, Jun 19
82 °FPassing clouds.9 mph62%30.01 "HgN/A
9:30 am82 °FPassing clouds.10 mph58%30.01 "HgN/A
9:00 am81 °FSunny.9 mph54%30.04 "Hg10 mi
8:30 am81 °FPassing clouds.6 mph58%30.04 "HgN/A
8:00 am79 °FPassing clouds.6 mph61%30.04 "HgN/A
7:30 am79 °FSunny.7 mph58%30.04 "Hg10 mi
7:00 am75 °FSunny.6 mph74%30.01 "Hg10 mi
6:30 am72 °FPassing clouds.3 mph83%30.01 "HgN/A
6:00 am68 °FSunny.2 mph88%30.04 "Hg10 mi
5:30 am66 °FSunny.7 mph88%30.04 "Hg10 mi
5:00 am68 °FPassing clouds.3 mph88%30.01 "HgN/A
4:30 am70 °FPassing clouds.7 mph88%30.01 "HgN/A
4:00 am68 °FClear.3 mph88%30.01 "Hg10 mi
3:30 am68 °FClear.3 mph88%30.01 "Hg10 mi
3:00 am70 °FClear.No wind83%30.01 "Hg10 mi
2:30 am70 °FClear.2 mph88%30.01 "Hg10 mi
2:00 am70 °FClear.3 mph83%30.01 "Hg10 mi
1:30 am72 °FClear.3 mph88%30.01 "Hg10 mi
1:00 am73 °FClear.5 mph83%30.01 "Hg10 mi
12:30 am73 °FClear.6 mph83%30.01 "Hg10 mi
12:00 am73 °FClear.5 mph89%30.01 "Hg10 mi
11:30 pm
Fri, Jun 18
73 °FClear.6 mph83%30.01 "Hg10 mi
11:00 pm75 °FClear.6 mph83%30.01 "Hg10 mi
10:30 pm75 °FClear.8 mph83%30.01 "Hg10 mi
9:30 pm75 °FClear.6 mph83%30.01 "Hg10 mi
9:00 pm75 °FClear.9 mph83%30.01 "Hg10 mi
8:30 pm77 °FClear.7 mph74%30.04 "Hg10 mi
8:00 pm75 °FClear.12 mph78%30.01 "Hg10 mi
7:30 pm75 °FSunny.14 mph78%30.01 "Hg10 mi
7:00 pm75 °FSunny.15 mph83%30.01 "Hg10 mi
6:30 pm77 °FSunny.18 mph79%29.98 "Hg10 mi
6:00 pm79 °FSunny.21 mph74%29.98 "Hg10 mi
5:30 pm77 °FSunny.21 mph79%29.98 "Hg10 mi
5:00 pm79 °FSunny.23 mph74%29.98 "Hg10 mi
4:30 pm79 °FSunny.23 mph74%29.98 "Hg10 mi
4:00 pm81 °FSunny.25 mph66%29.98 "Hg10 mi
3:30 pm79 °FSunny.24 mph74%29.98 "Hg10 mi
3:00 pm81 °FSunny.24 mph70%29.98 "Hg10 mi
2:30 pm81 °FSunny.22 mph70%29.98 "Hg10 mi
1:30 pm81 °FSunny.22 mph66%29.98 "Hg10 mi
1:00 pm79 °FSunny.21 mph74%30.01 "Hg10 mi
12:30 pm81 °FSunny.20 mph66%30.01 "Hg10 mi
12:00 pm79 °FSunny.21 mph74%30.01 "Hg10 mi
11:30 am79 °FSunny.18 mph70%30.04 "Hg10 mi
11:00 am81 °FSunny.17 mph66%30.04 "Hg10 mi
Weather by CustomWeather, © 2021

See weather overview